Saint Anne, Missouri
Current Conditions -  °F | °C
As of 11:51 PM on Tuesday 25 Nov 2014 (Local Time) from KSTL Reporting Station
Few Clouds Few Clouds  
Wind Chill: -6°   Ceiling: Unl
Heat Index: -2°   Visibility: 10mi
Dew Point: -6°   Wind: 6mph
Humidity: 78%   Direction: 110°ESE
Pressure: 30.15"   Gusts: NA
Location:  38.7263°N, 90.3885°W
Report Text: KSTL 260551Z 11005KT 10SM FEW250 M02/M06 A3015 RMK AO2 SLP220 T10221056 10033 21028 400561028 58011
Loading
Personal Weather Stations






























Interactive Weather Map New forecast layout! Learn more

10-Day Weather Forecast

Advertisements
Track Severe Weather on mobile